createdAt,value
2022-11-19T00:00:09.456Z,4.70
2022-11-19T00:02:39.153Z,4.83
2022-11-19T00:05:07.465Z,4.73
2022-11-19T00:07:35.652Z,5.00
2022-11-19T00:10:03.897Z,4.77
2022-11-19T00:12:49.268Z,4.93
2022-11-19T00:15:17.327Z,6.50
2022-11-19T00:17:47.016Z,5.60
2022-11-19T00:20:15.416Z,4.70
2022-11-19T00:22:43.422Z,4.23
2022-11-19T00:25:12.387Z,4.63
2022-11-19T00:27:40.520Z,4.07
2022-11-19T00:30:19.974Z,4.03
2022-11-19T00:32:59.508Z,4.37
2022-11-19T00:35:27.594Z,4.17
2022-11-19T00:37:55.578Z,3.83
2022-11-19T00:40:23.686Z,4.40
2022-11-19T00:43:05.521Z,3.80
2022-11-19T00:45:33.514Z,3.93
2022-11-19T00:48:03.144Z,4.37
2022-11-19T00:50:31.248Z,4.47
2022-11-19T00:52:59.648Z,4.00
2022-11-19T00:55:27.979Z,4.10
2022-11-19T00:57:55.957Z,4.70
2022-11-19T01:00:24.384Z,4.80
2022-11-19T01:02:52.629Z,4.50
2022-11-19T01:05:21.970Z,4.87
2022-11-19T01:07:50.045Z,4.67
2022-11-19T01:10:18.318Z,4.57
2022-11-19T01:13:00.304Z,5.43
2022-11-19T01:15:28.297Z,4.70
2022-11-19T01:17:56.297Z,5.27
2022-11-19T01:20:25.929Z,4.70
2022-11-19T01:22:54.002Z,4.77
2022-11-19T01:25:22.056Z,4.87
2022-11-19T01:27:50.546Z,5.13
2022-11-19T01:30:18.651Z,4.87
2022-11-19T01:32:46.922Z,4.97
2022-11-19T01:35:15.349Z,4.57
2022-11-19T01:37:44.993Z,4.83
2022-11-19T01:40:14.249Z,4.80
2022-11-19T01:42:51.016Z,4.67
2022-11-19T01:45:33.622Z,4.93
2022-11-19T01:48:05.562Z,4.53
2022-11-19T01:50:36.066Z,5.20
2022-11-19T01:53:05.801Z,4.77
2022-11-19T01:55:34.099Z,4.23
2022-11-19T01:58:03.131Z,4.17
2022-11-19T02:00:31.618Z,4.50
2022-11-19T02:03:00.021Z,4.53
2022-11-19T02:05:29.339Z,4.60
2022-11-19T02:07:59.389Z,4.67
2022-11-19T02:10:40.744Z,4.80
2022-11-19T02:13:18.415Z,4.50
2022-11-19T02:15:52.684Z,4.53
2022-11-19T02:18:40.299Z,4.47
2022-11-19T02:21:26.318Z,4.00
2022-11-19T02:24:22.506Z,3.97
2022-11-19T02:27:08.382Z,3.67
2022-11-19T02:30:02.901Z,4.17
2022-11-19T02:32:34.195Z,4.40
2022-11-19T02:35:15.681Z,4.43
2022-11-19T02:37:48.850Z,4.57
2022-11-19T02:40:22.088Z,4.00
2022-11-19T02:42:59.809Z,4.47
2022-11-19T02:45:36.607Z,3.73
2022-11-19T02:48:10.948Z,4.50
2022-11-19T02:50:44.737Z,3.93
2022-11-19T02:53:13.050Z,4.40
2022-11-19T02:55:41.572Z,4.40
2022-11-19T02:58:32.828Z,4.60
2022-11-19T03:03:55.351Z,3.80
2022-11-19T05:35:30.784Z,4.37
2022-11-19T05:48:40.406Z,5.90
2022-11-19T05:51:09.787Z,5.20
2022-11-19T05:53:37.811Z,5.40
2022-11-19T05:56:06.589Z,5.47
2022-11-19T05:58:34.635Z,5.53
2022-11-19T06:01:03.729Z,5.30
2022-11-19T06:03:32.388Z,5.43
2022-11-19T06:06:00.481Z,4.50
2022-11-19T06:08:29.897Z,5.27
2022-11-19T06:10:58.087Z,5.40
2022-11-19T06:13:26.477Z,6.00
2022-11-19T06:15:54.525Z,4.90
2022-11-19T06:29:13.987Z,5.37
2022-11-19T06:31:42.576Z,5.43
2022-11-19T06:34:11.323Z,5.50
2022-11-19T06:36:43.762Z,4.83
2022-11-19T06:39:14.444Z,5.00
2022-11-19T06:41:42.710Z,5.03
2022-11-19T06:44:12.484Z,5.93
2022-11-19T06:46:42.036Z,5.30
2022-11-19T06:49:15.493Z,5.10
2022-11-19T06:51:49.364Z,5.00
2022-11-19T06:54:21.255Z,9.53
2022-11-19T06:56:52.175Z,6.93
2022-11-19T06:59:33.194Z,5.47
2022-11-19T07:10:02.646Z,7.03
2022-11-19T07:12:31.512Z,8.87
2022-11-19T07:15:04.749Z,9.63
2022-11-19T07:17:39.558Z,9.90
2022-11-19T07:24:26.420Z,4.90
2022-11-19T08:13:07.492Z,6.33
2022-11-19T08:15:35.766Z,5.50
2022-11-19T08:18:12.292Z,6.10
2022-11-19T08:20:42.782Z,5.23
2022-11-19T08:23:12.384Z,5.77
2022-11-19T08:25:43.008Z,5.30
2022-11-19T08:28:11.441Z,5.43
2022-11-19T08:30:41.784Z,5.37
2022-11-19T08:33:10.206Z,4.67
2022-11-19T08:35:38.287Z,6.37
2022-11-19T08:38:08.143Z,5.53
2022-11-19T08:40:42.563Z,5.53
2022-11-19T08:43:09.763Z,6.57
2022-11-19T08:45:39.039Z,5.97
2022-11-19T08:48:13.554Z,5.47
2022-11-19T08:51:13.951Z,5.80
2022-11-19T08:53:47.229Z,5.43
2022-11-19T08:56:18.137Z,5.50
2022-11-19T08:58:49.254Z,6.37
2022-11-19T09:01:20.745Z,5.73
2022-11-19T09:03:49.083Z,6.00
2022-11-19T09:06:21.858Z,6.43
2022-11-19T09:08:51.524Z,5.93
2022-11-19T09:11:22.926Z,6.13
2022-11-19T09:13:58.332Z,5.53
2022-11-19T09:19:14.419Z,6.00
2022-11-19T09:21:43.025Z,6.40
2022-11-19T09:24:22.584Z,5.87
2022-11-19T09:26:52.960Z,6.63
2022-11-19T09:32:25.702Z,5.90
2022-11-19T09:34:56.107Z,6.73
2022-11-19T09:37:47.549Z,5.03
2022-11-19T09:40:21.744Z,4.77
2022-11-19T09:43:03.408Z,5.20
2022-11-19T09:45:51.215Z,5.63
2022-11-19T09:48:32.595Z,5.30
2022-11-19T09:51:14.049Z,5.40
2022-11-19T09:54:05.506Z,5.13
2022-11-19T09:56:45.921Z,5.70
2022-11-19T09:59:23.646Z,4.93
2022-11-19T10:02:19.529Z,4.60
2022-11-19T10:04:48.702Z,4.67
2022-11-19T10:07:28.785Z,4.90
2022-11-19T10:10:12.545Z,4.97
2022-11-19T10:13:13.732Z,5.10
2022-11-19T10:15:55.470Z,5.20
2022-11-19T10:18:33.732Z,5.10
2022-11-19T10:21:15.885Z,4.90
2022-11-19T10:23:54.608Z,4.37
2022-11-19T10:26:32.546Z,4.77
2022-11-19T10:29:04.802Z,4.60
2022-11-19T10:31:39.385Z,4.57
2022-11-19T10:34:23.348Z,4.60
2022-11-19T10:36:57.629Z,5.30
2022-11-19T10:39:32.389Z,4.57
2022-11-19T10:42:10.158Z,3.90
2022-11-19T10:44:45.206Z,4.93
2022-11-19T10:47:20.874Z,5.37
2022-11-19T10:49:54.475Z,4.40
2022-11-19T10:52:30.316Z,4.80
2022-11-19T10:55:04.086Z,4.23
2022-11-19T10:57:34.226Z,4.43
2022-11-19T11:00:03.850Z,4.73
2022-11-19T11:02:47.683Z,3.80
2022-11-19T11:05:18.740Z,3.60
2022-11-19T11:07:53.962Z,4.10
2022-11-19T11:10:37.422Z,4.00
2022-11-19T11:13:36.176Z,3.80
2022-11-19T11:16:15.597Z,6.07
2022-11-19T11:18:45.559Z,4.20
2022-11-19T11:21:35.754Z,4.83
2022-11-19T11:24:05.977Z,3.83
2022-11-19T11:26:46.069Z,4.00
2022-11-19T11:29:39.643Z,4.10
2022-11-19T11:32:31.593Z,3.90
2022-11-19T11:35:16.094Z,4.03
2022-11-19T11:37:56.817Z,3.90
2022-11-19T11:40:28.186Z,3.57
2022-11-19T11:43:13.331Z,4.23
2022-11-19T11:46:07.326Z,3.97
2022-11-19T11:48:47.920Z,4.20
2022-11-19T11:51:40.399Z,3.63
2022-11-19T11:54:23.197Z,4.03
2022-11-19T11:56:54.627Z,3.60
2022-11-19T11:59:38.928Z,4.27
2022-11-19T12:02:09.948Z,3.30
2022-11-19T12:04:42.964Z,3.70
2022-11-19T12:07:28.438Z,4.47
2022-11-19T12:10:04.734Z,3.67
2022-11-19T12:12:53.075Z,4.23
2022-11-19T12:15:32.456Z,3.50
2022-11-19T12:18:15.371Z,3.90
2022-11-19T12:21:11.320Z,4.20
2022-11-19T12:24:02.404Z,3.30
2022-11-19T12:26:40.280Z,3.60
2022-11-19T12:30:05.709Z,3.97
2022-11-19T12:33:03.382Z,3.50
2022-11-19T12:35:57.752Z,3.63
2022-11-19T12:38:41.666Z,3.47
2022-11-19T12:41:26.198Z,3.37
2022-11-19T12:43:59.436Z,4.03
2022-11-19T12:46:46.277Z,3.90
2022-11-19T12:49:38.077Z,3.70
2022-11-19T12:52:21.287Z,3.47
2022-11-19T12:54:57.633Z,3.47
2022-11-19T12:57:45.089Z,3.83
2022-11-19T13:00:18.831Z,3.63
2022-11-19T13:02:58.303Z,3.20
2022-11-19T13:05:40.828Z,3.80
2022-11-19T13:08:18.398Z,3.60
2022-11-19T13:10:50.259Z,3.90
2022-11-19T13:13:24.108Z,4.07
2022-11-19T13:15:59.623Z,4.00
2022-11-19T13:18:31.899Z,3.47
2022-11-19T13:21:04.331Z,3.87
2022-11-19T13:23:38.607Z,3.60
2022-11-19T13:26:11.645Z,4.07
2022-11-19T13:28:45.285Z,4.20
2022-11-19T13:31:19.206Z,4.40
2022-11-19T13:33:52.183Z,4.53
2022-11-19T13:36:25.052Z,4.07
2022-11-19T13:38:58.217Z,4.10
2022-11-19T13:41:31.125Z,4.20
2022-11-19T13:44:17.494Z,3.90
2022-11-19T13:46:48.431Z,3.47
2022-11-19T13:49:19.922Z,4.20
2022-11-19T13:51:51.902Z,4.30
2022-11-19T13:54:26.399Z,3.87
2022-11-19T13:57:01.925Z,4.43
2022-11-19T13:59:37.725Z,3.70
2022-11-19T14:02:32.538Z,4.00
2022-11-19T14:05:24.511Z,4.20
2022-11-19T14:08:09.721Z,4.60
2022-11-19T14:10:51.302Z,4.27
2022-11-19T14:13:32.592Z,4.60
2022-11-19T14:16:32.962Z,4.60
2022-11-19T14:19:18.445Z,4.57
2022-11-19T14:22:10.473Z,4.53
2022-11-19T14:25:15.605Z,4.13
2022-11-19T14:27:47.613Z,4.67
2022-11-19T14:30:20.528Z,4.10
2022-11-19T14:32:53.207Z,4.77
2022-11-19T14:35:40.892Z,4.53
2022-11-19T14:38:41.192Z,4.43
2022-11-19T14:41:30.485Z,4.53
2022-11-19T14:44:22.749Z,4.43
2022-11-19T14:46:52.553Z,3.80
2022-11-19T14:49:40.158Z,4.67
2022-11-19T14:52:22.742Z,5.10
2022-11-19T14:54:57.643Z,4.57
2022-11-19T14:57:30.319Z,4.57
2022-11-19T15:00:07.749Z,5.07
2022-11-19T15:02:41.059Z,5.03
2022-11-19T15:05:21.598Z,4.57
2022-11-19T15:07:56.079Z,4.33
2022-11-19T15:10:32.780Z,4.53
2022-11-19T15:13:24.860Z,5.07
2022-11-19T15:16:00.297Z,4.73
2022-11-19T15:19:26.466Z,5.10
2022-11-19T15:22:43.885Z,4.80
2022-11-19T15:25:40.124Z,4.87
2022-11-19T15:28:33.527Z,5.40
2022-11-19T15:31:22.499Z,5.23
2022-11-19T15:34:17.055Z,5.60
2022-11-19T15:37:02.231Z,6.33
2022-11-19T15:39:39.155Z,7.37
2022-11-19T15:42:13.625Z,6.40
2022-11-19T15:44:48.059Z,7.60
2022-11-19T15:47:23.547Z,6.87
2022-11-19T15:49:55.244Z,7.27
2022-11-19T15:52:29.381Z,6.23
2022-11-19T15:55:13.139Z,6.87
2022-11-19T15:57:45.458Z,5.93
2022-11-19T16:00:19.907Z,7.23
2022-11-19T16:02:52.842Z,7.13
2022-11-19T16:05:25.129Z,7.57
2022-11-19T16:07:54.946Z,6.80
2022-11-19T16:10:31.288Z,7.13
2022-11-19T16:13:18.831Z,6.07
2022-11-19T16:16:10.184Z,6.37
2022-11-19T16:18:49.923Z,5.63
2022-11-19T17:15:37.344Z,7.30
2022-11-19T17:24:48.600Z,4.80
2022-11-19T17:27:28.438Z,5.37
2022-11-19T17:30:04.842Z,5.63
2022-11-19T17:32:50.109Z,6.40
2022-11-19T17:35:35.328Z,5.90
2022-11-19T17:38:12.260Z,5.30
2022-11-19T17:40:53.942Z,5.30
2022-11-19T17:43:44.928Z,6.00
2022-11-19T17:46:27.651Z,5.77
2022-11-19T17:48:59.987Z,5.57
2022-11-19T17:51:40.181Z,4.83
2022-11-19T17:54:12.470Z,5.53
2022-11-19T17:56:49.459Z,5.70
2022-11-19T17:59:19.110Z,6.97
2022-11-19T18:01:54.739Z,5.80
2022-11-19T18:04:25.416Z,7.10
2022-11-19T18:06:56.957Z,8.00
2022-11-19T18:09:33.652Z,6.03
2022-11-19T18:12:05.990Z,6.93
2022-11-19T18:14:35.880Z,6.67
2022-11-19T18:17:15.202Z,7.23
2022-11-19T18:19:45.388Z,6.07
2022-11-19T18:22:20.102Z,6.60
2022-11-19T18:24:52.901Z,5.90
2022-11-19T18:27:23.269Z,6.73
2022-11-19T18:29:52.756Z,7.63
2022-11-19T18:32:27.258Z,7.57
2022-11-19T18:35:00.608Z,6.87
2022-11-19T18:37:31.500Z,5.93
2022-11-19T18:40:00.569Z,6.73
2022-11-19T18:42:31.541Z,7.30
2022-11-19T18:45:00.410Z,5.87
2022-11-19T18:47:31.561Z,6.03
2022-11-19T18:50:01.285Z,5.63
2022-11-19T18:52:30.595Z,5.80
2022-11-19T18:54:59.762Z,5.37
2022-11-19T18:57:29.993Z,4.87
2022-11-19T18:59:59.292Z,5.70
2022-11-19T19:02:30.625Z,7.03
2022-11-19T19:05:00.105Z,6.10
2022-11-19T19:07:29.418Z,6.57
2022-11-19T19:10:00.350Z,6.30
2022-11-19T19:12:28.465Z,5.87
2022-11-19T19:14:59.162Z,6.50
2022-11-19T19:17:30.221Z,5.47
2022-11-19T19:19:59.423Z,7.10
2022-11-19T19:22:28.607Z,5.50
2022-11-19T19:24:58.626Z,6.13
2022-11-19T19:27:28.083Z,6.07
2022-11-19T19:29:57.425Z,6.57
2022-11-19T19:32:27.573Z,6.57
2022-11-19T19:34:58.306Z,6.67
2022-11-19T19:37:28.028Z,6.07
2022-11-19T20:04:09.528Z,7.50
2022-11-19T20:07:30.282Z,9.23
2022-11-19T20:18:39.196Z,8.50
2022-11-19T20:28:38.203Z,6.83
2022-11-19T20:35:11.321Z,7.63
2022-11-19T20:45:25.700Z,8.80
2022-11-19T20:51:18.419Z,7.47
2022-11-19T20:54:17.577Z,7.87
2022-11-19T20:57:06.529Z,7.83
2022-11-19T20:59:44.183Z,7.60
2022-11-19T21:02:22.471Z,8.53
2022-11-19T21:05:23.084Z,7.30
2022-11-19T21:07:51.599Z,7.87
2022-11-19T21:10:50.364Z,8.00
2022-11-19T21:13:25.789Z,8.37
2022-11-19T21:15:54.310Z,7.50
2022-11-19T21:18:39.098Z,8.53
2022-11-19T21:21:14.508Z,6.93
2022-11-19T21:24:15.584Z,7.13
2022-11-19T21:26:45.376Z,7.50
2022-11-19T21:29:24.467Z,8.03
2022-11-19T21:31:53.424Z,7.63
2022-11-19T21:34:29.718Z,7.53
2022-11-19T21:37:01.126Z,7.00
2022-11-19T21:39:29.325Z,7.73
2022-11-19T21:41:58.607Z,8.13
2022-11-19T21:44:40.124Z,8.57
2022-11-19T21:47:08.467Z,9.97
2022-11-19T21:49:37.898Z,9.57
2022-11-19T21:52:06.143Z,8.23
2022-11-19T21:54:34.288Z,8.83
2022-11-19T21:57:02.344Z,8.63
2022-11-19T21:59:30.422Z,8.77
2022-11-19T22:01:59.612Z,8.63
2022-11-19T22:04:28.867Z,8.40
2022-11-19T22:07:01.544Z,9.53
2022-11-19T22:09:33.705Z,7.10
2022-11-19T22:12:01.879Z,8.40
2022-11-19T22:14:29.926Z,7.50
2022-11-19T22:16:58.276Z,7.83
2022-11-19T22:19:27.413Z,9.10
2022-11-19T22:21:55.406Z,7.33
2022-11-19T22:24:24.820Z,7.67
2022-11-19T22:26:52.934Z,6.93
2022-11-19T22:29:21.184Z,7.30
2022-11-19T22:31:49.417Z,7.10
2022-11-19T22:34:20.869Z,7.80
2022-11-19T22:36:48.932Z,7.40
2022-11-19T22:39:18.520Z,8.10
2022-11-19T22:41:51.194Z,8.70
2022-11-19T22:44:19.256Z,8.53
2022-11-19T22:46:47.345Z,7.53
2022-11-19T22:49:15.454Z,7.63
2022-11-19T22:51:43.693Z,7.83
2022-11-19T22:54:15.219Z,7.03
2022-11-19T22:56:43.374Z,7.97
2022-11-19T22:59:13.014Z,7.73
2022-11-19T23:01:41.180Z,8.23
2022-11-19T23:04:10.031Z,7.57
2022-11-19T23:06:38.466Z,8.47
2022-11-19T23:09:22.114Z,8.10
2022-11-19T23:14:54.686Z,7.90
2022-11-19T23:20:03.103Z,8.67
2022-11-19T23:22:32.842Z,8.43
